GOOYSBGL

Guest
Details From GOOY - Dakar Leopold Sedar Senghor Intl
To SBGL - Galeao Antonio Carlos Jombim
Flight Number -
Tags decoded
Created
Modified
Stats Distance 2,743 nm / 5,081 km
Max Altitude 0 ft / 0 m
Waypoints 7
Social Downloads 0
Likes 0
Share VATSIM

Download

Looking for another format? Having issues loading an existing format? Contact us
Advertisement - Login to hide

Notes

Requested: GOOY BOMSA UA302 TAROT KODOS UL206 PAMOX UM661 LOBIK ADA SBGL Unmatched points: UL206 PAMOX UM661 LOBIK

Route

GOOY BOMSA UA302 TAROT KODOS ADA SBGL

ID Type Via Altitude Latitude Longitude Leg Dist Tot Dist Heading (true) Name
O GOOY APT - 0 ft / 0 m 14.73971˚ -17.49023˚ - 0 nm - Dakar Leopold Sedar Senghor Intl
BOMSA FIX - 0 ft / 0 m 13.96889˚ -18.00000˚ 54 nm 54 nm 213° / 213° -
INIRO FIX UA302 (AWY-HI) 0 ft / 0 m 13.33194˚ -18.42778˚ 45 nm 100 nm 213° / 213° -
TAROT FIX UA302 (AWY-HI) 0 ft / 0 m 11.46500˚ -19.66667˚ 133 nm 234 nm 213° / 213° -
KODOS FIX - 0 ft / 0 m 1.20300˚ -26.21700˚ 729 nm 963 nm 213° / 212° -
ADA NDB - 0 ft / 0 m -22.82296˚ -42.09649˚ 1716 nm 2679 nm 212° / 215° ALDEIA NDB
O SBGL APT - 0 ft / 0 m -22.80894˚ -43.24368˚ 63 nm 2743 nm 271° / 271° Galeao Antonio Carlos Jombim

Altitude Profile

Advertisement - Login to hide

Weather


0- 5 10 15 20 25 30 35+ Temperature / ° C

Clouds and Precipitation
Forecast for 2017-12-18 00:00 UTC. Updated 37 minutes ago

Ground ~20,000 ft ~40,000 ft Winds

GOOY

Details ICAO GOOY (DKR)
Name Dakar Leopold Sedar Senghor Intl
Region Senegal
Timezone Africa/Dakar (UTC+0.0)
Stats Elevation 85 ft / 26 m (AMSL)
Location 14.739711° -17.490226°
Runways 2
Magnetic Variation 7.346° W

METAR

GOOY 171900Z 36012KT 8000 NSC 22/17 Q1014

Decode

TAF

TAF GOOY 171730Z 1718/1824 03014KT 8000 NSC= TAF GBYD 171730Z 1718/1824 05008KT CAVOK

Decode

Departure Runways

ID Width Length Bearing (true) Bearing (mag) Surface Threshold Offset Overrun Length
03 98 ft / 30 m 4,921 ft / 1,500 m 22.31° 29.66° Asphalt 0 ft / 0 m 98 ft / 30 m
18 148 ft / 45 m 11,511 ft / 3,509 m 172.57° 179.92° Asphalt 525 ft / 160 m 197 ft / 60 m
21 98 ft / 30 m 4,921 ft / 1,500 m 202.31° 209.66° Asphalt 0 ft / 0 m 1,590 ft / 485 m
36 148 ft / 45 m 11,511 ft / 3,509 m 352.57° 359.92° Asphalt 0 ft / 0 m 197 ft / 60 m

SBGL

Details ICAO SBGL (GIG)
Name Galeao Antonio Carlos Jombim
Region Brazil
Timezone America/Sao_Paulo (UTC-2.0)
Stats Elevation 28 ft / 9 m (AMSL)
Location -22.808938° -43.243681°
Runways 2
Magnetic Variation 22.768° W

METAR

SBGL 171900Z 14010KT 9999 FEW025 36/18 Q1010

Decode

TAF

TAF TAF SBGL 171330Z 1718/1824 17015KT 9999 FEW025 FEW030TCU TN24/1808Z TX34/1817Z PROB30 1718/1721 17015G25KT 8000 TS SCT020 FEW030CB BECMG 1721/1723 14010KT BECMG 1801/1802 10005KT CAVOK BECMG 1803/1806 35005KT 7000 NSC BECMG 1809/1812 02005KT CAVOK BECMG 1813/1815 14015KT 9999 FEW025 BECMG 1816/1818 17015KT SCT025 FEW030TCU PROB30 1818/1822 17015G25KT 7000 TSRA BKN020 FEW030CB BECMG 1822/1823 14010KT 8000 SCT020 RMK PGS

Decode

Destination Runways

ID Width Length Bearing (true) Bearing (mag) Surface Threshold Offset Overrun Length
10 148 ft / 45 m 13,128 ft / 4,001 m 74.39° 97.16° Concrete 0 ft / 0 m 175 ft / 53 m
15 154 ft / 47 m 10,418 ft / 3,175 m 125.78° 148.55° Asphalt 0 ft / 0 m 185 ft / 56 m
28 148 ft / 45 m 13,128 ft / 4,001 m 254.38° 277.15° Concrete 0 ft / 0 m 175 ft / 53 m
33 154 ft / 47 m 10,418 ft / 3,175 m 305.78° 328.55° Asphalt 0 ft / 0 m 185 ft / 56 m

Approach Navaids

Runway Type Ident Frequency Range Bearing (true) Bearing (mag) Slope Elevation
10 Localiser ITB 109.30 MHz 18 nm / 33 km 74.25° 97.02° - 16 ft / 5 m (AMSL)
10 Glidescope ITB 109.30 MHz 10 nm / 19 km 74.39° 97.15° 3.00° 16 ft / 5 m (AMSL)
15 Localiser IGL 110.30 MHz 18 nm / 33 km 125.61° 148.38° - 12 ft / 4 m (AMSL)
15 Glidescope IGL 110.30 MHz 10 nm / 19 km 125.78° 148.55° 3.00° 17 ft / 5 m (AMSL)
15 DME IGL 110.30 MHz 18 nm / 33 km - - - 17 ft / 5 m (AMSL)
28 Localiser ILM 111.50 MHz 18 nm / 33 km 254.59° 277.36° - 28 ft / 9 m (AMSL)
28 Glidescope ILM 111.50 MHz 10 nm / 19 km 254.39° 277.15° 2.94° 28 ft / 9 m (AMSL)
28 DME ILM 111.50 MHz 18 nm / 33 km - - - 28 ft / 9 m (AMSL)

Popular Alternatives